createdAt,value
2024-02-07T00:01:16.738Z,66.08
2024-02-07T00:03:44.106Z,64.08
2024-02-07T00:06:12.855Z,64.65
2024-02-07T00:08:40.154Z,63.20
2024-02-07T00:11:06.533Z,64.38
2024-02-07T00:13:32.954Z,65.11
2024-02-07T00:16:00.487Z,64.05
2024-02-07T00:18:26.864Z,66.33
2024-02-07T00:20:53.329Z,65.75
2024-02-07T00:23:20.093Z,65.03
2024-02-07T00:25:47.613Z,63.87
2024-02-07T00:28:14.029Z,64.56
2024-02-07T00:30:40.987Z,65.99
2024-02-07T00:33:07.629Z,64.74
2024-02-07T00:35:34.293Z,64.22
2024-02-07T00:38:00.822Z,63.14
2024-02-07T00:40:27.311Z,64.69
2024-02-07T00:42:53.694Z,64.86
2024-02-07T00:45:20.048Z,64.74
2024-02-07T00:47:47.648Z,66.35
2024-02-07T00:50:14.213Z,64.63
2024-02-07T00:52:40.658Z,64.65
2024-02-07T00:55:07.548Z,66.79
2024-02-07T00:57:34.067Z,65.36
2024-02-07T01:00:00.419Z,65.34
2024-02-07T01:02:27.355Z,66.16
2024-02-07T01:04:55.302Z,66.01
2024-02-07T01:07:23.303Z,65.47
2024-02-07T01:09:50.402Z,64.27
2024-02-07T01:12:17.510Z,65.49
2024-02-07T01:14:43.872Z,66.22
2024-02-07T01:17:10.356Z,65.47
2024-02-07T01:19:37.180Z,65.78
2024-02-07T01:22:03.644Z,63.29
2024-02-07T01:24:30.007Z,64.75
2024-02-07T01:26:56.352Z,64.48
2024-02-07T01:29:23.066Z,63.81
2024-02-07T01:31:49.638Z,62.71
2024-02-07T01:34:16.506Z,64.02
2024-02-07T01:36:46.608Z,64.69
2024-02-07T01:39:14.545Z,64.60
2024-02-07T01:41:59.352Z,62.35
2024-02-07T01:44:27.019Z,61.65
2024-02-07T01:46:53.600Z,64.58
2024-02-07T01:49:20.624Z,63.78
2024-02-07T01:51:48.708Z,64.87
2024-02-07T01:54:15.346Z,64.13
2024-02-07T01:56:42.677Z,64.31
2024-02-07T01:59:09.471Z,65.97
2024-02-07T02:01:36.956Z,65.98
2024-02-07T02:04:03.759Z,66.55
2024-02-07T02:06:30.165Z,64.57
2024-02-07T02:08:56.634Z,65.64
2024-02-07T02:11:31.008Z,65.53
2024-02-07T02:13:58.143Z,65.18
2024-02-07T02:16:24.604Z,64.98
2024-02-07T02:18:50.985Z,65.22
2024-02-07T02:21:22.941Z,65.41
2024-02-07T02:24:06.877Z,64.10
2024-02-07T02:26:51.744Z,63.96
2024-02-07T02:29:27.329Z,61.58
2024-02-07T02:31:57.432Z,63.45
2024-02-07T02:34:24.014Z,62.79
2024-02-07T02:36:50.419Z,62.90
2024-02-07T02:39:16.744Z,60.99
2024-02-07T02:41:43.094Z,62.83
2024-02-07T02:44:09.588Z,61.05
2024-02-07T02:46:36.015Z,60.47
2024-02-07T02:49:02.634Z,59.94
2024-02-07T02:51:29.127Z,62.49
2024-02-07T02:53:55.876Z,63.54
2024-02-07T02:56:22.286Z,62.71
2024-02-07T02:58:48.980Z,62.27
2024-02-07T03:01:15.586Z,61.80
2024-02-07T03:03:54.114Z,64.31
2024-02-07T03:06:30.592Z,63.73
2024-02-07T03:09:07.849Z,60.61
2024-02-07T03:11:35.008Z,63.93
2024-02-07T03:14:05.725Z,63.55
2024-02-07T03:16:32.228Z,63.27
2024-02-07T03:18:59.962Z,64.19
2024-02-07T03:21:27.319Z,63.94
2024-02-07T03:23:56.411Z,64.75
2024-02-07T03:26:25.361Z,64.92
2024-02-07T03:28:54.710Z,66.06
2024-02-07T03:31:21.779Z,67.18
2024-02-07T03:33:48.883Z,68.07
2024-02-07T03:36:16.624Z,67.35
2024-02-07T03:38:43.055Z,67.63
2024-02-07T03:41:10.830Z,66.22
2024-02-07T03:43:37.491Z,67.06
2024-02-07T03:46:06.794Z,69.60
2024-02-07T03:48:35.871Z,68.38
2024-02-07T03:51:03.635Z,69.33
2024-02-07T03:53:32.085Z,67.20
2024-02-07T03:55:58.809Z,70.09
2024-02-07T03:58:26.359Z,68.51
2024-02-07T04:00:52.890Z,68.72
2024-02-07T04:03:22.190Z,68.81
2024-02-07T04:05:48.581Z,68.70
2024-02-07T04:08:15.122Z,68.94
2024-02-07T04:10:43.779Z,69.91
2024-02-07T04:13:11.310Z,71.13
2024-02-07T04:15:56.533Z,70.59
2024-02-07T04:18:41.601Z,67.97
2024-02-07T04:21:26.658Z,68.94
2024-02-07T04:24:11.774Z,67.16
2024-02-07T04:26:56.956Z,67.16
2024-02-07T04:29:42.037Z,65.95
2024-02-07T04:32:27.268Z,67.17
2024-02-07T04:35:12.468Z,67.20
2024-02-07T04:37:57.589Z,65.49
2024-02-07T04:40:42.975Z,65.26
2024-02-07T04:43:28.094Z,65.61
2024-02-07T04:46:13.364Z,63.90
2024-02-07T04:48:58.658Z,63.60
2024-02-07T04:51:43.508Z,63.36
2024-02-07T04:54:28.499Z,62.42
2024-02-07T04:57:13.496Z,61.22
2024-02-07T04:59:58.673Z,60.35
2024-02-07T05:02:43.760Z,61.13
2024-02-07T05:05:28.743Z,60.17
2024-02-07T05:08:13.850Z,59.94
2024-02-07T05:10:58.973Z,60.64
2024-02-07T05:13:44.359Z,60.99
2024-02-07T05:16:12.785Z,61.55
2024-02-07T05:18:39.256Z,62.36
2024-02-07T05:21:05.698Z,62.60
2024-02-07T05:23:32.193Z,62.07
2024-02-07T05:25:59.451Z,61.25
2024-02-07T05:28:26.054Z,61.25
2024-02-07T05:30:52.425Z,61.22
2024-02-07T05:33:18.958Z,62.37
2024-02-07T05:35:45.515Z,61.60
2024-02-07T05:38:12.088Z,60.75
2024-02-07T05:40:38.568Z,60.85
2024-02-07T05:43:06.280Z,60.95
2024-02-07T05:45:32.619Z,61.98
2024-02-07T05:47:59.278Z,59.88
2024-02-07T05:50:25.673Z,58.91
2024-02-07T05:52:52.397Z,56.44
2024-02-07T05:55:19.038Z,57.81
2024-02-07T05:57:48.322Z,57.86
2024-02-07T06:02:42.601Z,55.86
2024-02-07T06:05:09.067Z,57.38
2024-02-07T06:07:35.624Z,55.78
2024-02-07T06:10:02.173Z,55.36
2024-02-07T06:12:29.691Z,54.55
2024-02-07T06:15:02.313Z,55.62
2024-02-07T06:17:30.321Z,54.55
2024-02-07T06:19:57.208Z,56.13
2024-02-07T06:22:23.729Z,56.21
2024-02-07T06:24:50.132Z,54.34
2024-02-07T06:27:16.493Z,55.08
2024-02-07T06:29:43.758Z,54.83
2024-02-07T06:32:10.304Z,54.95
2024-02-07T06:34:37.816Z,54.01
2024-02-07T06:37:04.771Z,54.32
2024-02-07T06:39:31.288Z,53.79
2024-02-07T06:41:57.817Z,55.89
2024-02-07T06:44:24.203Z,54.97
2024-02-07T06:46:50.763Z,54.53
2024-02-07T06:49:17.544Z,55.76
2024-02-07T06:51:44.210Z,54.87
2024-02-07T06:54:11.511Z,55.01
2024-02-07T06:56:38.053Z,55.32
2024-02-07T06:59:04.655Z,56.64
2024-02-07T07:01:31.221Z,57.25
2024-02-07T07:03:58.730Z,55.21
2024-02-07T07:06:27.510Z,57.75
2024-02-07T07:08:54.118Z,57.03
2024-02-07T07:11:20.594Z,57.71
2024-02-07T07:13:47.042Z,58.17
2024-02-07T07:16:13.494Z,58.92
2024-02-07T07:18:40.073Z,58.55
2024-02-07T07:21:06.463Z,58.58
2024-02-07T07:23:32.833Z,59.39
2024-02-07T07:25:59.289Z,58.95
2024-02-07T07:28:25.646Z,57.01
2024-02-07T07:30:53.525Z,58.63
2024-02-07T07:33:19.868Z,58.75
2024-02-07T07:35:46.332Z,58.21
2024-02-07T07:38:12.918Z,58.79
2024-02-07T07:40:43.092Z,58.27
2024-02-07T07:43:09.549Z,57.92
2024-02-07T07:45:35.954Z,57.23
2024-02-07T07:48:02.400Z,58.29
2024-02-07T07:50:29.033Z,58.11
2024-02-07T07:52:55.524Z,57.78
2024-02-07T07:55:22.109Z,58.14
2024-02-07T07:57:48.757Z,58.12
2024-02-07T08:00:15.621Z,58.13
2024-02-07T08:02:41.976Z,57.93
2024-02-07T08:05:09.221Z,56.44
2024-02-07T08:07:35.806Z,54.91
2024-02-07T08:10:02.315Z,56.55
2024-02-07T08:12:28.681Z,55.40
2024-02-07T08:14:55.183Z,55.77
2024-02-07T08:17:21.571Z,56.19
2024-02-07T08:19:48.364Z,53.90
2024-02-07T08:22:14.899Z,54.18
2024-02-07T08:24:41.260Z,54.84
2024-02-07T08:27:07.654Z,55.29
2024-02-07T08:29:34.008Z,52.67
2024-02-07T08:32:01.998Z,54.02
2024-02-07T08:34:29.026Z,53.29
2024-02-07T08:36:55.727Z,54.83
2024-02-07T08:39:22.294Z,53.68
2024-02-07T08:41:48.737Z,54.91
2024-02-07T08:44:15.082Z,54.69
2024-02-07T08:46:44.619Z,55.40
2024-02-07T08:49:11.750Z,52.44
2024-02-07T08:51:38.560Z,52.24
2024-02-07T08:54:05.204Z,52.75
2024-02-07T08:56:31.714Z,51.87
2024-02-07T08:58:58.118Z,53.57
2024-02-07T09:01:27.403Z,54.11
2024-02-07T09:03:53.828Z,53.21
2024-02-07T09:06:21.024Z,52.91
2024-02-07T09:08:47.495Z,54.11
2024-02-07T09:11:13.929Z,53.27
2024-02-07T09:13:40.295Z,53.20
2024-02-07T09:16:06.740Z,53.68
2024-02-07T09:18:36.484Z,54.27
2024-02-07T09:21:03.247Z,53.97
2024-02-07T09:23:29.641Z,53.29
2024-02-07T09:25:56.055Z,54.54
2024-02-07T09:28:22.539Z,54.51
2024-02-07T09:30:49.033Z,54.08
2024-02-07T09:33:15.935Z,54.20
2024-02-07T09:35:42.751Z,55.14
2024-02-07T09:38:09.306Z,56.05
2024-02-07T09:40:35.904Z,56.11
2024-02-07T09:43:02.770Z,54.91
2024-02-07T09:45:33.689Z,54.97
2024-02-07T09:48:07.927Z,55.29
2024-02-07T09:50:34.366Z,54.23
2024-02-07T09:53:01.192Z,55.24
2024-02-07T09:55:28.966Z,55.10
2024-02-07T09:57:55.479Z,52.32
2024-02-07T10:00:21.925Z,53.50
2024-02-07T10:02:51.636Z,52.84
2024-02-07T10:05:23.835Z,52.99
2024-02-07T10:07:54.485Z,52.59
2024-02-07T10:10:21.416Z,53.70
2024-02-07T10:12:48.254Z,54.16
2024-02-07T10:15:14.701Z,53.88
2024-02-07T10:17:41.092Z,55.09
2024-02-07T10:20:11.436Z,54.14
2024-02-07T10:22:41.804Z,54.07
2024-02-07T10:25:13.619Z,55.14
2024-02-07T10:27:40.381Z,55.19
2024-02-07T10:30:09.194Z,53.56
2024-02-07T10:32:36.818Z,56.31
2024-02-07T10:35:05.307Z,53.75
2024-02-07T10:37:42.445Z,53.52
2024-02-07T10:40:10.476Z,53.98
2024-02-07T10:42:39.958Z,55.08
2024-02-07T10:45:08.128Z,55.58
2024-02-07T10:47:35.657Z,53.97
2024-02-07T10:50:03.052Z,55.08
2024-02-07T10:52:29.924Z,54.03
2024-02-07T10:54:56.709Z,53.46
2024-02-07T10:57:29.223Z,52.97
2024-02-07T11:00:02.505Z,52.51
2024-02-07T11:02:29.173Z,52.93
2024-02-07T11:04:55.808Z,52.83
2024-02-07T11:07:22.558Z,51.91
2024-02-07T11:09:49.298Z,52.06
2024-02-07T11:12:16.506Z,52.36
2024-02-07T11:14:47.458Z,51.42
2024-02-07T11:17:15.032Z,51.17
2024-02-07T11:19:42.506Z,51.68
2024-02-07T11:22:15.084Z,52.06
2024-02-07T11:24:41.811Z,51.60
2024-02-07T11:27:09.699Z,51.25
2024-02-07T11:29:36.324Z,53.44
2024-02-07T11:32:04.505Z,51.20
2024-02-07T11:34:32.904Z,52.73
2024-02-07T11:37:05.393Z,51.75
2024-02-07T11:39:37.782Z,52.11
2024-02-07T11:42:12.647Z,54.34
2024-02-07T11:44:56.846Z,52.25
2024-02-07T11:47:52.555Z,52.72
2024-02-07T11:50:19.176Z,52.29
2024-02-07T11:52:51.134Z,52.57
2024-02-07T11:55:18.469Z,54.81
2024-02-07T11:57:46.902Z,55.25
2024-02-07T12:00:16.482Z,53.69
2024-02-07T12:02:53.054Z,52.78
2024-02-07T12:05:21.928Z,55.30
2024-02-07T12:07:49.136Z,53.25
2024-02-07T12:10:15.961Z,53.71
2024-02-07T12:12:43.989Z,55.34
2024-02-07T12:15:10.601Z,55.21
2024-02-07T12:17:37.067Z,54.96
2024-02-07T12:20:04.254Z,54.79
2024-02-07T12:22:34.854Z,53.94
2024-02-07T12:25:02.929Z,54.73
2024-02-07T12:27:29.606Z,53.49
2024-02-07T12:29:57.461Z,52.70
2024-02-07T12:32:25.203Z,51.75
2024-02-07T12:34:53.165Z,50.52
2024-02-07T12:37:20.532Z,52.00
2024-02-07T12:39:51.965Z,52.19
2024-02-07T12:42:21.695Z,53.07
2024-02-07T12:44:54.189Z,51.81
2024-02-07T12:47:23.401Z,53.87
2024-02-07T12:49:51.961Z,52.49
2024-02-07T12:52:19.385Z,53.07
2024-02-07T12:54:46.824Z,52.37
2024-02-07T12:57:24.831Z,52.30
2024-02-07T12:59:54.598Z,53.76
2024-02-07T13:02:21.342Z,54.13
2024-02-07T13:04:48.352Z,55.74
2024-02-07T13:07:16.835Z,54.61
2024-02-07T13:09:45.205Z,54.01
2024-02-07T13:12:19.295Z,53.03
2024-02-07T13:14:53.882Z,54.61
2024-02-07T13:17:20.263Z,54.40
2024-02-07T13:19:46.700Z,55.22
2024-02-07T13:22:15.339Z,58.64
2024-02-07T13:24:42.276Z,62.60
2024-02-07T13:27:08.703Z,63.24
2024-02-07T13:29:38.020Z,65.76
2024-02-07T13:32:10.737Z,68.87
2024-02-07T13:34:38.170Z,70.01
2024-02-07T13:37:05.111Z,67.38
2024-02-07T13:39:31.487Z,66.50
2024-02-07T13:41:58.179Z,65.39
2024-02-07T13:44:24.531Z,67.24
2024-02-07T13:46:50.979Z,65.83
2024-02-07T13:49:17.427Z,65.23
2024-02-07T13:51:43.983Z,65.39
2024-02-07T13:54:12.024Z,64.51
2024-02-07T13:56:39.073Z,64.25
2024-02-07T13:59:05.650Z,64.75
2024-02-07T14:01:32.121Z,61.81
2024-02-07T14:04:02.390Z,61.71
2024-02-07T14:06:28.771Z,62.87
2024-02-07T14:08:55.101Z,63.89
2024-02-07T14:11:21.453Z,61.73
2024-02-07T14:13:47.865Z,60.65
2024-02-07T14:16:15.632Z,62.09
2024-02-07T14:18:42.170Z,61.18
2024-02-07T14:21:08.893Z,60.62
2024-02-07T14:23:37.287Z,62.04
2024-02-07T14:26:04.726Z,63.14
2024-02-07T14:28:31.211Z,61.45
2024-02-07T14:30:57.621Z,61.79
2024-02-07T14:33:24.078Z,60.65
2024-02-07T14:35:50.575Z,57.75
2024-02-07T14:38:19.200Z,59.04
2024-02-07T14:40:45.731Z,61.49
2024-02-07T14:43:13.733Z,62.82
2024-02-07T14:45:40.164Z,62.66
2024-02-07T14:48:06.781Z,60.90
2024-02-07T14:50:33.352Z,63.73
2024-02-07T14:52:59.819Z,62.63
2024-02-07T14:55:26.254Z,62.62
2024-02-07T14:57:52.749Z,63.42
2024-02-07T15:00:19.479Z,62.89
2024-02-07T15:02:45.810Z,61.90
2024-02-07T15:05:14.932Z,61.53
2024-02-07T15:07:41.591Z,61.79
2024-02-07T15:10:12.931Z,61.23
2024-02-07T15:12:39.712Z,62.54
2024-02-07T15:15:07.255Z,59.96
2024-02-07T15:17:34.135Z,59.70
2024-02-07T15:20:00.635Z,59.04
2024-02-07T15:22:27.885Z,59.13
2024-02-07T15:24:54.234Z,58.51
2024-02-07T15:27:20.589Z,58.31
2024-02-07T15:29:46.948Z,58.02
2024-02-07T15:32:13.299Z,57.30
2024-02-07T15:34:39.741Z,56.73
2024-02-07T15:37:06.545Z,57.99
2024-02-07T15:39:33.274Z,58.33
2024-02-07T15:41:59.626Z,59.78
2024-02-07T15:44:25.963Z,58.82
2024-02-07T15:46:52.328Z,60.14
2024-02-07T15:49:18.947Z,59.52
2024-02-07T15:51:45.405Z,59.58
2024-02-07T15:54:12.337Z,58.10
2024-02-07T15:56:38.889Z,58.20
2024-02-07T15:59:05.737Z,57.80
2024-02-07T16:01:40.733Z,57.64
2024-02-07T16:04:12.851Z,56.08
2024-02-07T16:06:39.534Z,57.45
2024-02-07T16:09:05.933Z,56.36
2024-02-07T16:11:32.280Z,57.26
2024-02-07T16:13:58.777Z,58.45
2024-02-07T16:16:25.246Z,57.45
2024-02-07T16:18:51.597Z,56.14
2024-02-07T16:21:18.006Z,55.59
2024-02-07T16:23:44.346Z,55.92
2024-02-07T16:26:10.754Z,55.19
2024-02-07T16:28:37.125Z,54.85
2024-02-07T16:31:07.879Z,55.76
2024-02-07T16:33:34.437Z,56.85
2024-02-07T16:36:00.944Z,56.46
2024-02-07T16:38:27.901Z,56.61
2024-02-07T16:40:54.459Z,57.13
2024-02-07T16:43:21.698Z,56.70
2024-02-07T16:45:48.307Z,56.12
2024-02-07T16:48:14.722Z,56.08
2024-02-07T16:50:41.113Z,57.14
2024-02-07T16:53:07.562Z,57.07
2024-02-07T16:55:33.958Z,57.05
2024-02-07T16:58:00.429Z,56.74
2024-02-07T17:00:26.864Z,56.68
2024-02-07T17:02:53.256Z,56.74
2024-02-07T17:05:19.724Z,57.57
2024-02-07T17:07:46.423Z,55.94
2024-02-07T17:10:12.928Z,57.00
2024-02-07T17:12:39.312Z,56.37
2024-02-07T17:15:06.163Z,55.55
2024-02-07T17:17:32.561Z,56.90
2024-02-07T17:19:59.054Z,55.32
2024-02-07T17:22:25.754Z,55.72
2024-02-07T17:24:52.178Z,55.34
2024-02-07T17:27:18.613Z,56.60
2024-02-07T17:29:52.579Z,57.47
2024-02-07T17:32:22.070Z,55.86
2024-02-07T17:34:48.508Z,56.39
2024-02-07T17:37:14.887Z,57.51
2024-02-07T17:39:41.231Z,58.05
2024-02-07T17:42:07.587Z,58.03
2024-02-07T17:44:33.969Z,55.78
2024-02-07T17:47:02.482Z,57.25
2024-02-07T17:49:30.051Z,57.81
2024-02-07T17:51:57.773Z,57.02
2024-02-07T17:54:24.258Z,56.57
2024-02-07T17:56:50.615Z,57.26
2024-02-07T17:59:16.945Z,58.30
2024-02-07T18:01:43.426Z,57.84
2024-02-07T18:04:09.840Z,58.21
2024-02-07T18:06:36.249Z,57.75
2024-02-07T18:09:02.735Z,58.50
2024-02-07T18:11:31.229Z,58.30
2024-02-07T18:13:57.686Z,58.58
2024-02-07T18:16:24.306Z,58.98
2024-02-07T18:18:52.857Z,58.02
2024-02-07T18:21:20.172Z,58.36
2024-02-07T18:23:50.382Z,58.05
2024-02-07T18:26:18.148Z,58.24
2024-02-07T18:28:47.821Z,57.75
2024-02-07T18:31:14.607Z,57.75
2024-02-07T18:33:42.209Z,58.09
2024-02-07T18:36:10.471Z,58.61
2024-02-07T18:38:38.929Z,57.34
2024-02-07T18:41:06.936Z,56.66
2024-02-07T18:43:34.865Z,56.26
2024-02-07T18:46:04.780Z,56.56
2024-02-07T18:48:31.811Z,57.52
2024-02-07T18:50:59.133Z,56.73
2024-02-07T18:53:25.929Z,56.75
2024-02-07T18:55:54.254Z,56.12
2024-02-07T18:58:21.354Z,56.41
2024-02-07T19:00:49.914Z,56.59
2024-02-07T19:03:16.922Z,57.13
2024-02-07T19:05:46.848Z,56.88
2024-02-07T19:08:16.683Z,57.29
2024-02-07T19:10:44.468Z,56.98
2024-02-07T19:13:11.344Z,57.31
2024-02-07T19:15:38.293Z,57.70
2024-02-07T19:18:06.512Z,57.42
2024-02-07T19:20:34.622Z,57.15
2024-02-07T19:23:02.029Z,57.28
2024-02-07T19:25:29.095Z,57.73
2024-02-07T19:27:57.464Z,57.70
2024-02-07T19:30:24.259Z,57.79
2024-02-07T19:32:51.253Z,58.33
2024-02-07T19:35:18.527Z,58.53
2024-02-07T19:37:50.765Z,58.63
2024-02-07T19:40:19.225Z,58.18
2024-02-07T19:42:46.793Z,57.51
2024-02-07T19:45:13.747Z,58.26
2024-02-07T19:47:41.785Z,58.29
2024-02-07T19:50:13.324Z,57.99
2024-02-07T19:52:42.788Z,58.31
2024-02-07T19:55:09.919Z,57.83
2024-02-07T19:57:37.791Z,57.18
2024-02-07T20:00:05.190Z,57.80
2024-02-07T20:02:32.146Z,57.79
2024-02-07T20:04:59.146Z,57.29
2024-02-07T20:07:27.640Z,56.91
2024-02-07T20:09:56.159Z,57.68
2024-02-07T20:12:25.016Z,57.42
2024-02-07T20:14:52.447Z,57.18
2024-02-07T20:17:19.604Z,57.69
2024-02-07T20:19:46.523Z,57.74
2024-02-07T20:22:16.138Z,58.11
2024-02-07T20:24:43.050Z,57.85
2024-02-07T20:27:10.275Z,57.16
2024-02-07T20:29:38.486Z,58.09
2024-02-07T20:32:07.212Z,58.44
2024-02-07T20:34:34.349Z,58.11
2024-02-07T20:37:04.184Z,57.91
2024-02-07T20:39:32.190Z,58.56
2024-02-07T20:42:00.798Z,59.65
2024-02-07T20:44:29.556Z,59.81
2024-02-07T20:46:57.036Z,59.28
2024-02-07T20:49:24.153Z,59.52
2024-02-07T20:51:51.667Z,60.78
2024-02-07T20:54:18.490Z,60.42
2024-02-07T20:56:45.463Z,60.62
2024-02-07T20:59:13.396Z,61.04
2024-02-07T21:01:41.359Z,60.45
2024-02-07T21:04:08.269Z,61.31
2024-02-07T21:06:36.311Z,60.72
2024-02-07T21:09:07.489Z,61.06
2024-02-07T21:11:34.822Z,60.96
2024-02-07T21:14:05.893Z,61.54
2024-02-07T21:16:34.709Z,61.34
2024-02-07T21:19:01.515Z,60.71
2024-02-07T21:21:29.979Z,60.73
2024-02-07T21:23:56.714Z,60.11
2024-02-07T21:26:24.584Z,60.27
2024-02-07T21:28:52.207Z,60.29
2024-02-07T21:31:19.277Z,60.15
2024-02-07T21:33:48.919Z,58.85
2024-02-07T21:36:16.841Z,59.57
2024-02-07T21:38:43.756Z,58.56
2024-02-07T21:41:10.805Z,58.16
2024-02-07T21:43:37.837Z,57.75
2024-02-07T21:46:09.385Z,58.76
2024-02-07T21:48:37.474Z,58.40
2024-02-07T21:51:07.571Z,58.39
2024-02-07T21:53:34.548Z,57.55
2024-02-07T21:56:01.375Z,58.43
2024-02-07T21:58:28.562Z,58.75
2024-02-07T22:00:55.453Z,58.92
2024-02-07T22:03:22.378Z,59.13
2024-02-07T22:05:49.165Z,59.00
2024-02-07T22:08:16.215Z,58.64
2024-02-07T22:10:43.059Z,59.35
2024-02-07T22:13:10.079Z,58.47
2024-02-07T22:15:37.719Z,59.04
2024-02-07T22:18:04.885Z,58.44
2024-02-07T22:20:31.676Z,58.92
2024-02-07T22:22:58.597Z,58.46
2024-02-07T22:25:25.598Z,58.74
2024-02-07T22:27:52.543Z,59.45
2024-02-07T22:30:19.369Z,59.86
2024-02-07T22:32:51.518Z,60.94
2024-02-07T22:35:18.698Z,59.70
2024-02-07T22:37:46.241Z,58.28
2024-02-07T22:40:14.091Z,59.37
2024-02-07T22:42:40.430Z,59.29
2024-02-07T22:45:07.409Z,58.73
2024-02-07T22:47:33.768Z,59.34
2024-02-07T22:50:00.578Z,59.34
2024-02-07T22:52:27.033Z,58.74
2024-02-07T22:54:53.485Z,59.61
2024-02-07T22:57:20.846Z,59.48
2024-02-07T22:59:47.542Z,58.54
2024-02-07T23:02:15.265Z,58.09
2024-02-07T23:04:41.654Z,60.26
2024-02-07T23:07:09.358Z,59.37
2024-02-07T23:09:35.864Z,61.70
2024-02-07T23:12:02.836Z,59.67
2024-02-07T23:14:29.250Z,59.84
2024-02-07T23:16:55.657Z,61.43
2024-02-07T23:19:24.892Z,60.34
2024-02-07T23:21:51.391Z,60.88
2024-02-07T23:24:17.857Z,61.00
2024-02-07T23:26:47.534Z,60.81
2024-02-07T23:29:13.984Z,61.92
2024-02-07T23:31:40.360Z,61.47
2024-02-07T23:34:06.796Z,62.32
2024-02-07T23:36:33.438Z,62.04
2024-02-07T23:38:59.807Z,60.95
2024-02-07T23:41:26.190Z,61.13
2024-02-07T23:43:52.573Z,61.79
2024-02-07T23:46:20.740Z,61.45
2024-02-07T23:48:47.377Z,62.70
2024-02-07T23:51:13.796Z,62.90
2024-02-07T23:53:40.127Z,61.83
2024-02-07T23:56:06.822Z,62.33
2024-02-07T23:58:33.270Z,64.08
